createdAt,value
2019-05-23T00:01:48.578Z,6.20
2019-05-23T00:04:22.631Z,6.17
2019-05-23T00:06:51.089Z,6.13
2019-05-23T00:09:20.091Z,5.97
2019-05-23T00:12:22.459Z,6.57
2019-05-23T00:14:54.981Z,8.57
2019-05-23T00:17:26.076Z,6.93
2019-05-23T00:19:55.359Z,7.10
2019-05-23T00:22:24.505Z,6.93
2019-05-23T00:24:53.328Z,6.67
2019-05-23T00:27:22.327Z,7.10
2019-05-23T00:29:50.836Z,7.57
2019-05-23T00:32:27.094Z,7.27
2019-05-23T00:34:55.796Z,8.90
2019-05-23T00:37:25.220Z,9.13
2019-05-23T00:39:53.685Z,9.97
2019-05-23T00:42:22.475Z,9.87
2019-05-23T00:44:52.527Z,11.37
2019-05-23T00:47:20.748Z,10.10
2019-05-23T00:49:49.393Z,10.60
2019-05-23T00:52:17.589Z,10.37
2019-05-23T00:54:45.717Z,11.87
2019-05-23T00:57:14.703Z,12.13
2019-05-23T00:59:43.777Z,12.77
2019-05-23T01:02:12.610Z,14.03
2019-05-23T01:04:42.200Z,13.77
2019-05-23T01:07:12.309Z,13.67
2019-05-23T01:09:42.284Z,14.20
2019-05-23T01:12:12.034Z,13.93
2019-05-23T01:14:41.005Z,17.12
2019-05-23T01:17:09.685Z,12.37
2019-05-23T01:19:38.785Z,12.53
2019-05-23T01:22:09.789Z,12.83
2019-05-23T01:24:47.149Z,11.63
2019-05-23T01:27:15.229Z,11.30
2019-05-23T01:29:49.482Z,12.00
2019-05-23T01:32:33.449Z,12.33
2019-05-23T01:35:04.071Z,13.37
2019-05-23T01:37:34.160Z,12.13
2019-05-23T01:40:04.478Z,13.03
2019-05-23T01:42:32.585Z,12.40
2019-05-23T01:45:01.767Z,16.42
2019-05-23T01:47:32.005Z,14.00
2019-05-23T01:50:01.683Z,15.40
2019-05-23T01:52:29.867Z,14.50
2019-05-23T01:54:58.559Z,14.67
2019-05-23T01:57:27.261Z,13.73
2019-05-23T02:00:17.450Z,14.43
2019-05-23T02:02:46.214Z,15.07
2019-05-23T02:05:14.751Z,14.43
2019-05-23T02:07:42.901Z,15.37
2019-05-23T02:10:12.745Z,14.90
2019-05-23T02:12:41.164Z,14.43
2019-05-23T02:15:11.473Z,14.57
2019-05-23T02:17:41.000Z,15.85
2019-05-23T02:20:11.942Z,13.33
2019-05-23T02:22:40.894Z,12.60
2019-05-23T02:25:11.969Z,13.33
2019-05-23T02:27:42.180Z,15.00
2019-05-23T02:30:32.324Z,13.90
2019-05-23T02:32:43.467Z,14.77
2019-05-23T02:35:12.295Z,14.97
2019-05-23T02:38:04.109Z,13.73
2019-05-23T02:40:51.631Z,14.63
2019-05-23T02:43:22.299Z,15.63
2019-05-23T02:45:57.004Z,14.93
2019-05-23T02:48:30.942Z,17.23
2019-05-23T02:51:04.661Z,15.70
2019-05-23T02:53:35.566Z,14.73
2019-05-23T02:56:08.219Z,14.47
2019-05-23T02:58:48.567Z,15.03
2019-05-23T03:01:51.495Z,14.00
2019-05-23T03:04:22.581Z,11.50
2019-05-23T03:06:51.883Z,10.97
2019-05-23T03:09:23.130Z,9.83
2019-05-23T03:11:56.703Z,9.00
2019-05-23T03:14:26.518Z,8.00
2019-05-23T03:16:58.671Z,7.70
2019-05-23T03:19:34.118Z,7.90
2019-05-23T03:22:27.832Z,10.00
2019-05-23T03:24:58.083Z,7.47
2019-05-23T03:27:26.459Z,7.93
2019-05-23T03:29:55.079Z,9.30
2019-05-23T03:32:46.293Z,10.10
2019-05-23T03:35:37.730Z,8.63
2019-05-23T03:38:07.931Z,10.60
2019-05-23T03:40:37.103Z,11.03
2019-05-23T03:43:06.004Z,10.43
2019-05-23T03:45:39.646Z,10.07
2019-05-23T03:48:08.699Z,8.67
2019-05-23T03:50:38.738Z,8.73
2019-05-23T03:53:09.915Z,10.25
2019-05-23T03:55:39.056Z,9.13
2019-05-23T03:58:09.801Z,8.90
2019-05-23T04:00:43.229Z,8.63
2019-05-23T04:03:12.325Z,9.63
2019-05-23T04:05:40.817Z,9.53
2019-05-23T04:08:10.513Z,9.47
2019-05-23T04:10:38.922Z,8.70
2019-05-23T04:13:07.601Z,9.13
2019-05-23T04:15:36.113Z,9.53
2019-05-23T04:18:04.879Z,9.23
2019-05-23T04:20:33.413Z,10.47
2019-05-23T04:23:03.657Z,10.40
2019-05-23T04:25:32.379Z,11.70
2019-05-23T04:28:01.035Z,12.65
2019-05-23T04:30:29.487Z,11.33
2019-05-23T04:32:58.016Z,11.37
2019-05-23T04:35:26.197Z,11.10
2019-05-23T04:37:54.333Z,9.73
2019-05-23T04:40:22.794Z,8.90
2019-05-23T04:42:51.338Z,8.77
2019-05-23T04:45:21.066Z,8.27
2019-05-23T04:47:49.314Z,9.10
2019-05-23T04:50:18.062Z,7.80
2019-05-23T04:52:47.032Z,7.60
2019-05-23T04:55:16.201Z,8.03
2019-05-23T04:57:49.465Z,7.67
2019-05-23T05:00:18.072Z,7.58
2019-05-23T05:02:48.022Z,7.13
2019-05-23T05:05:16.186Z,7.90
2019-05-23T05:07:44.899Z,6.30
2019-05-23T05:10:17.162Z,7.23
2019-05-23T05:12:46.789Z,6.83
2019-05-23T05:15:14.864Z,7.57
2019-05-23T05:17:44.140Z,6.80
2019-05-23T05:20:13.289Z,7.00
2019-05-23T05:22:42.177Z,6.63
2019-05-23T05:25:12.805Z,6.53
2019-05-23T05:27:41.914Z,7.27
2019-05-23T05:30:10.595Z,6.60
2019-05-23T05:32:44.889Z,6.60
2019-05-23T05:35:09.715Z,6.97
2019-05-23T05:37:38.425Z,6.47
2019-05-23T05:40:09.262Z,6.53
2019-05-23T05:42:40.683Z,6.80
2019-05-23T05:45:11.540Z,6.90
2019-05-23T05:47:39.900Z,7.27
2019-05-23T05:50:09.635Z,7.00
2019-05-23T05:52:38.460Z,7.67
2019-05-23T05:55:07.783Z,7.67
2019-05-23T05:57:38.230Z,6.92
2019-05-23T06:00:12.596Z,8.03
2019-05-23T06:02:39.216Z,8.10
2019-05-23T06:05:10.095Z,7.15
2019-05-23T06:07:43.006Z,7.62
2019-05-23T06:10:13.822Z,7.30
2019-05-23T06:12:42.225Z,7.42
2019-05-23T06:15:13.895Z,8.15
2019-05-23T06:17:42.257Z,8.10
2019-05-23T06:20:10.828Z,7.53
2019-05-23T06:22:42.033Z,7.40
2019-05-23T06:25:14.977Z,7.85
2019-05-23T06:27:43.542Z,7.97
2019-05-23T06:30:13.244Z,10.13
2019-05-23T06:32:41.998Z,9.53
2019-05-23T06:35:13.347Z,8.75
2019-05-23T06:37:42.118Z,8.93
2019-05-23T06:40:10.635Z,8.65
2019-05-23T06:42:39.034Z,7.95
2019-05-23T06:45:08.430Z,8.10
2019-05-23T06:47:36.999Z,7.83
2019-05-23T06:50:09.993Z,8.68
2019-05-23T06:52:38.245Z,8.33
2019-05-23T06:55:06.781Z,7.70
2019-05-23T06:57:35.576Z,7.87
2019-05-23T07:00:04.494Z,7.92
2019-05-23T07:02:33.187Z,8.55
2019-05-23T07:05:01.329Z,7.67
2019-05-23T07:07:45.621Z,8.43
2019-05-23T07:10:13.245Z,7.80
2019-05-23T07:12:41.352Z,7.28
2019-05-23T07:15:10.322Z,7.42
2019-05-23T07:17:39.032Z,7.12
2019-05-23T07:20:06.998Z,7.37
2019-05-23T07:22:34.838Z,7.97
2019-05-23T07:25:04.672Z,6.75
2019-05-23T07:27:32.739Z,6.35
2019-05-23T07:30:00.646Z,7.47
2019-05-23T07:32:28.322Z,6.83
2019-05-23T07:34:56.307Z,6.55
2019-05-23T07:37:23.897Z,6.20
2019-05-23T07:39:52.039Z,5.97
2019-05-23T07:42:19.618Z,5.42
2019-05-23T07:44:49.053Z,5.60
2019-05-23T07:50:20.442Z,6.45
2019-05-23T07:52:49.025Z,5.90
2019-05-23T07:55:26.934Z,4.90
2019-05-23T07:57:55.244Z,5.00
2019-05-23T08:00:27.914Z,3.22
2019-05-23T08:02:58.861Z,3.65
2019-05-23T08:05:27.618Z,3.67
2019-05-23T08:07:56.316Z,3.25
2019-05-23T08:10:33.721Z,3.47
2019-05-23T08:12:54.196Z,2.60
2019-05-23T08:15:22.049Z,2.83
2019-05-23T08:17:49.898Z,3.70
2019-05-23T08:20:17.612Z,3.80
2019-05-23T08:22:46.105Z,3.10
2019-05-23T08:25:13.819Z,2.37
2019-05-23T08:27:41.907Z,1.92
2019-05-23T08:30:09.836Z,2.27
2019-05-23T08:32:38.070Z,2.00
2019-05-23T08:35:05.873Z,2.22
2019-05-23T08:37:33.763Z,1.47
2019-05-23T08:40:02.381Z,1.60
2019-05-23T08:42:30.364Z,1.85
2019-05-23T08:44:58.289Z,1.77
2019-05-23T08:47:25.993Z,2.02
2019-05-23T08:49:54.018Z,1.72
2019-05-23T08:52:42.123Z,2.22
2019-05-23T08:55:19.312Z,2.15
2019-05-23T08:57:47.799Z,2.00
2019-05-23T09:00:16.049Z,2.25
2019-05-23T09:02:44.455Z,1.95
2019-05-23T09:05:12.084Z,2.55
2019-05-23T09:07:39.947Z,3.02
2019-05-23T09:10:07.847Z,2.25
2019-05-23T09:12:35.813Z,2.12
2019-05-23T09:15:03.819Z,2.65
2019-05-23T09:17:31.387Z,3.35
2019-05-23T09:19:59.288Z,1.82
2019-05-23T09:22:28.451Z,1.10
2019-05-23T09:24:56.074Z,1.32
2019-05-23T09:27:23.695Z,2.62
2019-05-23T09:29:51.479Z,2.30
2019-05-23T09:32:21.443Z,1.80
2019-05-23T09:34:49.004Z,1.70
2019-05-23T09:37:17.733Z,1.82
2019-05-23T09:39:47.108Z,1.47
2019-05-23T09:42:14.632Z,1.87
2019-05-23T09:44:42.227Z,1.22
2019-05-23T09:47:10.094Z,1.27
2019-05-23T09:49:37.554Z,1.70
2019-05-23T09:52:07.145Z,0.90
2019-05-23T09:54:34.809Z,1.00
2019-05-23T09:57:03.073Z,1.00
2019-05-23T09:59:31.357Z,1.30
2019-05-23T10:02:01.060Z,0.93
2019-05-23T10:04:31.112Z,1.07
2019-05-23T10:07:07.086Z,1.12
2019-05-23T10:09:34.926Z,1.05
2019-05-23T10:12:03.306Z,1.25
2019-05-23T10:14:33.321Z,1.32
2019-05-23T10:17:01.083Z,1.15
2019-05-23T10:19:29.150Z,1.43
2019-05-23T10:21:57.586Z,1.45
2019-05-23T10:24:25.302Z,1.25
2019-05-23T10:26:53.772Z,1.30
2019-05-23T10:29:21.562Z,1.02
2019-05-23T10:31:49.306Z,1.55
2019-05-23T10:34:17.217Z,1.45
2019-05-23T10:36:45.020Z,1.85
2019-05-23T10:39:13.111Z,1.75
2019-05-23T10:41:41.025Z,1.40
2019-05-23T10:44:09.448Z,1.55
2019-05-23T10:46:37.242Z,1.72
2019-05-23T10:49:05.141Z,1.82
2019-05-23T10:51:32.989Z,2.00
2019-05-23T10:54:00.790Z,2.45
2019-05-23T10:56:29.129Z,2.02
2019-05-23T10:58:56.937Z,1.75
2019-05-23T11:01:26.279Z,2.55
2019-05-23T11:03:54.337Z,1.98
2019-05-23T11:06:22.848Z,2.22
2019-05-23T11:08:50.593Z,1.70
2019-05-23T11:11:18.273Z,1.70
2019-05-23T11:13:46.181Z,1.70
2019-05-23T11:16:18.707Z,1.72
2019-05-23T11:18:46.283Z,1.80
2019-05-23T11:21:13.960Z,1.87
2019-05-23T11:23:46.327Z,2.12
2019-05-23T11:26:13.958Z,1.60
2019-05-23T11:28:41.889Z,2.10
2019-05-23T11:31:11.424Z,2.22
2019-05-23T11:33:39.402Z,2.10
2019-05-23T11:36:08.213Z,2.47
2019-05-23T11:38:35.910Z,2.42
2019-05-23T11:41:03.619Z,3.22
2019-05-23T11:43:31.314Z,3.42
2019-05-23T11:46:06.392Z,3.52
2019-05-23T11:48:34.114Z,2.30
2019-05-23T11:51:02.039Z,3.10
2019-05-23T11:53:30.602Z,3.27
2019-05-23T11:55:58.196Z,3.25
2019-05-23T11:58:26.836Z,3.27
2019-05-23T12:01:33.478Z,3.45
2019-05-23T12:04:29.660Z,3.55
2019-05-23T12:07:10.418Z,3.13
2019-05-23T12:09:38.016Z,2.72
2019-05-23T12:12:06.003Z,3.42
2019-05-23T12:14:34.325Z,3.20
2019-05-23T12:17:02.048Z,2.90
2019-05-23T12:19:29.572Z,4.25
2019-05-23T12:21:57.764Z,3.83
2019-05-23T12:24:26.090Z,3.22
2019-05-23T12:26:53.771Z,3.05
2019-05-23T12:32:05.367Z,4.12
2019-05-23T12:34:33.727Z,3.40
2019-05-23T12:37:18.147Z,3.65
2019-05-23T12:39:31.244Z,3.08
2019-05-23T12:41:58.890Z,2.62
2019-05-23T12:44:26.843Z,3.25
2019-05-23T12:46:54.507Z,3.35
2019-05-23T12:49:39.818Z,4.00
2019-05-23T12:52:10.252Z,2.80
2019-05-23T12:54:38.130Z,3.95
2019-05-23T12:57:06.427Z,3.25
2019-05-23T12:59:35.421Z,2.55
2019-05-23T13:02:05.394Z,2.22
2019-05-23T13:04:33.406Z,2.22
2019-05-23T13:07:01.075Z,2.47
2019-05-23T13:09:29.141Z,2.10
2019-05-23T13:11:57.091Z,2.35
2019-05-23T13:14:25.046Z,2.10
2019-05-23T13:16:53.073Z,1.57
2019-05-23T13:19:20.667Z,1.40
2019-05-23T13:21:48.275Z,1.65
2019-05-23T13:24:16.204Z,2.05
2019-05-23T13:26:43.948Z,2.85
2019-05-23T13:29:11.625Z,2.35
2019-05-23T13:31:39.361Z,1.85
2019-05-23T13:34:07.569Z,1.07
2019-05-23T13:36:35.472Z,1.25
2019-05-23T13:39:06.259Z,0.93
2019-05-23T13:41:33.798Z,1.10
2019-05-23T13:44:01.423Z,1.30
2019-05-23T13:46:29.351Z,1.62
2019-05-23T13:49:06.364Z,1.55
2019-05-23T13:51:34.841Z,1.37
2019-05-23T13:54:12.784Z,1.40
2019-05-23T13:56:41.416Z,1.00
2019-05-23T13:59:09.501Z,0.70
2019-05-23T14:01:37.467Z,1.20
2019-05-23T14:04:05.251Z,1.10
2019-05-23T14:06:32.882Z,0.70
2019-05-23T14:09:02.436Z,1.32
2019-05-23T14:11:30.271Z,1.85
2019-05-23T14:17:30.079Z,1.67
2019-05-23T14:23:04.271Z,1.60
2019-05-23T14:25:32.030Z,1.60
2019-05-23T14:28:15.933Z,1.70
2019-05-23T14:31:06.191Z,2.08
2019-05-23T14:34:05.358Z,1.25
2019-05-23T14:37:02.490Z,1.32
2019-05-23T14:39:36.250Z,1.45
2019-05-23T14:42:23.859Z,1.40
2019-05-23T14:44:51.935Z,1.47
2019-05-23T14:47:38.227Z,1.60
2019-05-23T14:50:22.924Z,1.17
2019-05-23T14:52:52.605Z,1.55
2019-05-23T14:55:21.967Z,1.52
2019-05-23T14:57:50.750Z,1.50
2019-05-23T15:00:19.432Z,1.65
2019-05-23T15:02:49.358Z,1.55
2019-05-23T15:05:17.281Z,1.37
2019-05-23T15:07:45.248Z,1.53
2019-05-23T15:10:14.434Z,1.92
2019-05-23T15:12:42.123Z,1.40
2019-05-23T15:15:11.451Z,1.40
2019-05-23T15:17:39.704Z,2.15
2019-05-23T15:23:11.280Z,1.50
2019-05-23T15:25:38.975Z,1.82
2019-05-23T15:31:05.656Z,0.70
2019-05-23T15:33:33.340Z,0.75
2019-05-23T15:36:00.999Z,0.50
2019-05-23T15:38:28.872Z,0.60
2019-05-23T15:40:56.608Z,0.88
2019-05-23T15:43:24.275Z,0.78
2019-05-23T15:45:51.957Z,0.90
2019-05-23T15:48:19.644Z,0.90
2019-05-23T15:50:50.096Z,0.90
2019-05-23T15:59:36.663Z,0.70
2019-05-23T16:02:20.612Z,0.75
2019-05-23T16:04:49.383Z,0.60
2019-05-23T16:07:17.157Z,0.50
2019-05-23T16:09:44.956Z,0.53
2019-05-23T16:12:13.825Z,0.62
2019-05-23T16:14:42.026Z,0.90
2019-05-23T16:17:11.146Z,1.10
2019-05-23T16:19:39.144Z,1.07
2019-05-23T16:22:07.205Z,1.27
2019-05-23T16:24:35.877Z,1.00
2019-05-23T16:27:06.063Z,0.85
2019-05-23T16:29:34.728Z,1.35
2019-05-23T16:32:10.995Z,1.07
2019-05-23T16:34:48.852Z,1.10
2019-05-23T16:37:16.758Z,1.30
2019-05-23T16:39:47.840Z,1.42
2019-05-23T16:42:15.499Z,1.35
2019-05-23T16:44:43.605Z,1.70
2019-05-23T16:47:11.366Z,0.70
2019-05-23T16:49:39.650Z,0.95
2019-05-23T16:52:26.767Z,1.10
2019-05-23T16:54:56.206Z,0.95
2019-05-23T16:57:45.707Z,0.95
2019-05-23T17:00:37.446Z,1.00
2019-05-23T17:03:24.560Z,0.80
2019-05-23T17:06:08.448Z,0.80
2019-05-23T17:08:58.287Z,0.80
2019-05-23T17:11:46.603Z,0.80
2019-05-23T17:14:27.510Z,1.10
2019-05-23T17:17:13.184Z,0.90
2019-05-23T17:19:45.708Z,1.47
2019-05-23T17:22:38.499Z,1.82
2019-05-23T17:25:34.498Z,1.50
2019-05-23T17:28:32.948Z,1.20
2019-05-23T17:31:03.257Z,0.80
2019-05-23T17:33:30.873Z,1.45
2019-05-23T17:35:58.506Z,1.52
2019-05-23T17:38:26.630Z,1.35
2019-05-23T17:40:54.725Z,1.90
2019-05-23T17:48:52.462Z,3.75
2019-05-23T17:51:20.439Z,4.20
2019-05-23T17:53:48.041Z,3.45
2019-05-23T17:56:15.781Z,3.47
2019-05-23T17:58:43.443Z,1.72
2019-05-23T18:01:11.127Z,1.95
2019-05-23T18:03:39.018Z,1.70
2019-05-23T18:06:07.007Z,1.10
2019-05-23T18:08:36.807Z,1.90
2019-05-23T18:11:04.703Z,1.85
2019-05-23T18:13:33.216Z,2.17
2019-05-23T18:16:00.796Z,2.40
2019-05-23T18:18:29.223Z,1.98
2019-05-23T18:20:56.915Z,1.85
2019-05-23T18:23:24.441Z,1.52
2019-05-23T18:25:52.033Z,1.82
2019-05-23T18:28:20.329Z,1.72
2019-05-23T18:31:07.789Z,1.98
2019-05-23T18:33:33.621Z,2.00
2019-05-23T18:36:03.118Z,2.02
2019-05-23T18:38:31.783Z,1.72
2019-05-23T18:41:04.332Z,1.60
2019-05-23T18:43:29.450Z,1.45
2019-05-23T18:46:00.249Z,1.20
2019-05-23T18:48:27.951Z,1.10
2019-05-23T18:50:56.186Z,0.70
2019-05-23T18:56:09.541Z,0.82
2019-05-23T18:58:37.466Z,0.80
2019-05-23T19:01:12.193Z,1.15
2019-05-23T19:03:40.224Z,1.00
2019-05-23T19:06:08.180Z,1.10
2019-05-23T19:08:36.437Z,0.98
2019-05-23T19:11:19.371Z,1.25
2019-05-23T19:13:34.397Z,1.92
2019-05-23T19:16:02.709Z,1.67
2019-05-23T19:18:30.308Z,1.80
2019-05-23T19:20:58.641Z,1.55
2019-05-23T19:23:26.859Z,1.27
2019-05-23T19:25:54.948Z,1.40
2019-05-23T19:28:23.996Z,1.10
2019-05-23T19:30:52.034Z,1.07
2019-05-23T19:33:19.901Z,0.90
2019-05-23T19:35:49.025Z,1.00
2019-05-23T19:38:16.649Z,1.12
2019-05-23T19:43:47.914Z,1.12
2019-05-23T19:46:14.268Z,0.90
2019-05-23T19:48:42.462Z,0.90
2019-05-23T19:51:10.113Z,1.07
2019-05-23T19:53:38.022Z,1.25
2019-05-23T19:56:06.546Z,1.32
2019-05-23T19:58:34.903Z,1.10
2019-05-23T20:01:05.184Z,1.17
2019-05-23T20:03:34.066Z,1.70
2019-05-23T20:06:02.883Z,1.60
2019-05-23T20:08:31.447Z,1.35
2019-05-23T20:11:05.578Z,1.00
2019-05-23T20:13:36.919Z,1.20
2019-05-23T20:16:05.590Z,1.87
2019-05-23T20:18:34.138Z,1.77
2019-05-23T20:21:03.325Z,1.92
2019-05-23T20:23:34.945Z,1.67
2019-05-23T20:26:07.958Z,1.95
2019-05-23T20:28:39.794Z,2.00
2019-05-23T20:31:12.392Z,2.58
2019-05-23T20:33:41.392Z,2.02
2019-05-23T20:36:13.302Z,2.12
2019-05-23T20:38:43.930Z,2.30
2019-05-23T20:41:13.464Z,2.12
2019-05-23T20:43:42.488Z,2.60
2019-05-23T20:46:11.282Z,2.60
2019-05-23T20:48:40.539Z,2.67
2019-05-23T20:51:09.879Z,2.98
2019-05-23T20:53:39.214Z,3.08
2019-05-23T20:56:07.751Z,2.50
2019-05-23T20:58:36.632Z,2.60
2019-05-23T21:01:35.338Z,1.90
2019-05-23T21:04:06.921Z,2.27
2019-05-23T21:06:35.574Z,2.58
2019-05-23T21:09:05.837Z,2.45
2019-05-23T21:11:35.578Z,3.00
2019-05-23T21:14:04.842Z,2.47
2019-05-23T21:16:33.670Z,2.47
2019-05-23T21:19:03.245Z,3.05
2019-05-23T21:21:32.070Z,3.30
2019-05-23T21:24:06.789Z,2.72
2019-05-23T21:26:35.668Z,3.15
2019-05-23T21:29:05.417Z,3.25
2019-05-23T21:31:35.734Z,3.55
2019-05-23T21:34:06.578Z,3.15
2019-05-23T21:36:36.384Z,4.30
2019-05-23T21:39:08.007Z,5.47
2019-05-23T21:41:38.365Z,5.78
2019-05-23T21:44:07.078Z,5.35
2019-05-23T21:46:35.808Z,4.60
2019-05-23T21:49:04.165Z,4.97
2019-05-23T21:51:32.817Z,5.97
2019-05-23T21:54:00.728Z,5.67
2019-05-23T21:56:28.778Z,7.92
2019-05-23T21:58:57.620Z,8.10
2019-05-23T22:01:43.856Z,8.28
2019-05-23T22:04:41.000Z,8.58
2019-05-23T22:07:10.610Z,10.25
2019-05-23T22:09:39.057Z,8.60
2019-05-23T22:12:12.002Z,8.98
2019-05-23T22:14:40.485Z,9.08
2019-05-23T22:17:08.768Z,8.63
2019-05-23T22:19:36.990Z,8.70
2019-05-23T22:22:05.990Z,8.75
2019-05-23T22:24:34.546Z,8.73
2019-05-23T22:27:02.905Z,7.85
2019-05-23T22:29:30.944Z,8.35
2019-05-23T22:31:58.991Z,8.60
2019-05-23T22:34:53.674Z,7.58
2019-05-23T22:37:24.165Z,8.23
2019-05-23T22:39:52.216Z,8.63
2019-05-23T22:42:23.300Z,9.45
2019-05-23T22:44:52.176Z,10.08
2019-05-23T22:47:20.189Z,9.50
2019-05-23T22:49:48.948Z,10.43
2019-05-23T22:52:17.016Z,10.88
2019-05-23T22:54:45.188Z,11.33
2019-05-23T22:57:13.382Z,11.03
2019-05-23T22:59:41.920Z,12.70
2019-05-23T23:02:13.090Z,11.78
2019-05-23T23:04:41.416Z,12.00
2019-05-23T23:07:09.520Z,11.80
2019-05-23T23:09:38.156Z,12.20
2019-05-23T23:12:06.212Z,12.55
2019-05-23T23:14:34.544Z,12.73
2019-05-23T23:17:02.661Z,12.13
2019-05-23T23:19:31.296Z,11.70
2019-05-23T23:21:59.445Z,13.38
2019-05-23T23:24:27.481Z,11.95
2019-05-23T23:26:56.064Z,12.45
2019-05-23T23:29:24.157Z,13.53
2019-05-23T23:31:52.294Z,13.28
2019-05-23T23:34:20.464Z,12.70
2019-05-23T23:36:49.099Z,14.10
2019-05-23T23:39:17.528Z,13.48
2019-05-23T23:41:45.850Z,13.58
2019-05-23T23:44:14.394Z,13.72
2019-05-23T23:47:00.935Z,14.23
2019-05-23T23:49:46.810Z,13.88
2019-05-23T23:52:33.474Z,15.65
2019-05-23T23:55:19.471Z,15.80
2019-05-23T23:57:59.122Z,15.90
